sensor_id;sensor_type;location;lat;lon;timestamp;P1;durP1;ratioP1;P2;durP2;ratioP2
53903;SDS011;39812;52.430;16.936;2022-09-09T00:00:22;27.83;;;17.73;;
53903;SDS011;39812;52.430;16.936;2022-09-09T00:05:51;28.50;;;17.60;;
53903;SDS011;39812;52.430;16.936;2022-09-09T00:08:32;28.13;;;18.05;;
53903;SDS011;39812;52.430;16.936;2022-09-09T00:11:04;29.83;;;18.88;;
53903;SDS011;39812;52.430;16.936;2022-09-09T00:13:46;30.40;;;18.27;;
53903;SDS011;39812;52.430;16.936;2022-09-09T00:16:21;30.35;;;17.88;;
53903;SDS011;39812;52.430;16.936;2022-09-09T00:24:41;32.78;;;18.92;;
53903;SDS011;39812;52.430;16.936;2022-09-09T00:27:11;31.90;;;19.70;;
53903;SDS011;39812;52.430;16.936;2022-09-09T00:29:49;31.80;;;19.17;;
53903;SDS011;39812;52.430;16.936;2022-09-09T00:32:19;36.33;;;21.52;;
53903;SDS011;39812;52.430;16.936;2022-09-09T00:34:49;35.00;;;20.55;;
53903;SDS011;39812;52.430;16.936;2022-09-09T00:37:19;37.03;;;20.73;;
53903;SDS011;39812;52.430;16.936;2022-09-09T00:39:46;34.63;;;20.85;;
53903;SDS011;39812;52.430;16.936;2022-09-09T00:42:18;33.90;;;19.92;;
53903;SDS011;39812;52.430;16.936;2022-09-09T00:45:15;34.53;;;20.27;;
53903;SDS011;39812;52.430;16.936;2022-09-09T00:48:05;32.15;;;20.45;;
53903;SDS011;39812;52.430;16.936;2022-09-09T00:56:22;29.67;;;18.92;;
53903;SDS011;39812;52.430;16.936;2022-09-09T00:58:58;34.35;;;19.95;;
53903;SDS011;39812;52.430;16.936;2022-09-09T01:01:31;33.63;;;18.17;;
53903;SDS011;39812;52.430;16.936;2022-09-09T01:03:56;29.15;;;18.20;;
53903;SDS011;39812;52.430;16.936;2022-09-09T01:06:32;31.95;;;20.08;;
53903;SDS011;39812;52.430;16.936;2022-09-09T01:11:26;31.00;;;16.25;;
53903;SDS011;39812;52.430;16.936;2022-09-09T01:14:01;28.58;;;16.63;;
53903;SDS011;39812;52.430;16.936;2022-09-09T01:16:38;25.83;;;17.02;;
53903;SDS011;39812;52.430;16.936;2022-09-09T01:19:06;26.35;;;15.98;;
53903;SDS011;39812;52.430;16.936;2022-09-09T01:21:42;21.17;;;15.20;;
53903;SDS011;39812;52.430;16.936;2022-09-09T01:24:27;26.60;;;15.85;;
53903;SDS011;39812;52.430;16.936;2022-09-09T01:27:02;24.83;;;15.43;;
53903;SDS011;39812;52.430;16.936;2022-09-09T01:29:30;22.40;;;14.82;;
53903;SDS011;39812;52.430;16.936;2022-09-09T01:31:57;22.98;;;14.27;;
53903;SDS011;39812;52.430;16.936;2022-09-09T01:34:41;22.60;;;14.10;;
53903;SDS011;39812;52.430;16.936;2022-09-09T01:37:07;21.90;;;13.90;;
53903;SDS011;39812;52.430;16.936;2022-09-09T01:39:35;18.50;;;13.15;;
53903;SDS011;39812;52.430;16.936;2022-09-09T01:42:03;21.48;;;14.27;;
53903;SDS011;39812;52.430;16.936;2022-09-09T01:44:31;19.63;;;13.90;;
53903;SDS011;39812;52.430;16.936;2022-09-09T01:46:56;22.55;;;13.98;;
53903;SDS011;39812;52.430;16.936;2022-09-09T01:49:22;26.92;;;15.35;;
53903;SDS011;39812;52.430;16.936;2022-09-09T01:51:49;25.15;;;14.80;;
53903;SDS011;39812;52.430;16.936;2022-09-09T01:54:21;23.65;;;14.65;;
53903;SDS011;39812;52.430;16.936;2022-09-09T01:56:55;24.30;;;14.85;;
53903;SDS011;39812;52.430;16.936;2022-09-09T02:02:36;21.42;;;14.45;;
53903;SDS011;39812;52.430;16.936;2022-09-09T02:05:16;21.45;;;14.70;;
53903;SDS011;39812;52.430;16.936;2022-09-09T02:07:53;25.15;;;14.52;;
53903;SDS011;39812;52.430;16.936;2022-09-09T02:10:54;23.80;;;14.32;;
53903;SDS011;39812;52.430;16.936;2022-09-09T02:13:21;27.05;;;15.15;;
53903;SDS011;39812;52.430;16.936;2022-09-09T02:15:52;25.15;;;15.30;;
53903;SDS011;39812;52.430;16.936;2022-09-09T02:18:27;27.70;;;15.20;;
53903;SDS011;39812;52.430;16.936;2022-09-09T02:20:59;25.00;;;15.57;;
53903;SDS011;39812;52.430;16.936;2022-09-09T02:23:26;24.17;;;14.25;;
53903;SDS011;39812;52.430;16.936;2022-09-09T02:25:53;24.17;;;14.88;;
53903;SDS011;39812;52.430;16.936;2022-09-09T02:28:21;24.42;;;15.15;;
53903;SDS011;39812;52.430;16.936;2022-09-09T02:30:50;24.35;;;14.88;;
53903;SDS011;39812;52.430;16.936;2022-09-09T02:33:20;25.30;;;15.95;;
53903;SDS011;39812;52.430;16.936;2022-09-09T02:35:49;22.52;;;14.25;;
53903;SDS011;39812;52.430;16.936;2022-09-09T02:38:16;22.30;;;15.27;;
53903;SDS011;39812;52.430;16.936;2022-09-09T02:40:43;27.30;;;15.57;;
53903;SDS011;39812;52.430;16.936;2022-09-09T02:43:09;27.33;;;15.52;;
53903;SDS011;39812;52.430;16.936;2022-09-09T02:48:25;25.60;;;15.60;;
53903;SDS011;39812;52.430;16.936;2022-09-09T02:51:05;26.65;;;16.52;;
53903;SDS011;39812;52.430;16.936;2022-09-09T02:53:57;26.15;;;15.77;;
53903;SDS011;39812;52.430;16.936;2022-09-09T02:56:31;25.20;;;16.27;;
53903;SDS011;39812;52.430;16.936;2022-09-09T02:59:04;29.17;;;16.80;;
53903;SDS011;39812;52.430;16.936;2022-09-09T03:01:30;27.13;;;15.82;;
53903;SDS011;39812;52.430;16.936;2022-09-09T03:03:56;27.23;;;15.90;;
53903;SDS011;39812;52.430;16.936;2022-09-09T03:06:22;28.58;;;16.60;;
53903;SDS011;39812;52.430;16.936;2022-09-09T03:08:47;27.83;;;16.90;;
53903;SDS011;39812;52.430;16.936;2022-09-09T03:11:14;28.33;;;16.85;;
53903;SDS011;39812;52.430;16.936;2022-09-09T03:13:40;32.45;;;17.35;;
53903;SDS011;39812;52.430;16.936;2022-09-09T03:16:05;32.05;;;18.33;;
53903;SDS011;39812;52.430;16.936;2022-09-09T03:18:31;31.17;;;17.58;;
53903;SDS011;39812;52.430;16.936;2022-09-09T03:20:57;31.13;;;17.73;;
53903;SDS011;39812;52.430;16.936;2022-09-09T03:23:24;28.52;;;17.50;;
53903;SDS011;39812;52.430;16.936;2022-09-09T03:25:50;30.55;;;16.77;;
53903;SDS011;39812;52.430;16.936;2022-09-09T03:28:16;36.40;;;17.23;;
53903;SDS011;39812;52.430;16.936;2022-09-09T03:30:42;34.78;;;18.08;;
53903;SDS011;39812;52.430;16.936;2022-09-09T03:33:08;33.28;;;17.15;;
53903;SDS011;39812;52.430;16.936;2022-09-09T03:35:33;26.00;;;16.00;;
53903;SDS011;39812;52.430;16.936;2022-09-09T03:37:59;27.30;;;16.60;;
53903;SDS011;39812;52.430;16.936;2022-09-09T03:40:25;27.73;;;16.35;;
53903;SDS011;39812;52.430;16.936;2022-09-09T03:42:51;27.40;;;16.10;;
53903;SDS011;39812;52.430;16.936;2022-09-09T03:45:16;26.92;;;16.55;;
53903;SDS011;39812;52.430;16.936;2022-09-09T03:47:42;29.48;;;16.85;;
53903;SDS011;39812;52.430;16.936;2022-09-09T03:50:08;25.48;;;16.65;;
53903;SDS011;39812;52.430;16.936;2022-09-09T03:52:35;30.20;;;17.38;;
53903;SDS011;39812;52.430;16.936;2022-09-09T03:55:02;28.48;;;16.23;;
53903;SDS011;39812;52.430;16.936;2022-09-09T03:57:28;28.13;;;17.17;;
53903;SDS011;39812;52.430;16.936;2022-09-09T03:59:54;24.35;;;15.63;;
53903;SDS011;39812;52.430;16.936;2022-09-09T04:02:20;24.75;;;15.85;;
53903;SDS011;39812;52.430;16.936;2022-09-09T04:04:46;24.85;;;15.93;;
53903;SDS011;39812;52.430;16.936;2022-09-09T04:07:11;20.40;;;14.52;;
53903;SDS011;39812;52.430;16.936;2022-09-09T04:09:37;21.67;;;14.93;;
53903;SDS011;39812;52.430;16.936;2022-09-09T04:12:03;22.88;;;14.88;;
53903;SDS011;39812;52.430;16.936;2022-09-09T04:14:29;21.83;;;13.50;;
53903;SDS011;39812;52.430;16.936;2022-09-09T04:16:54;21.63;;;13.80;;
53903;SDS011;39812;52.430;16.936;2022-09-09T04:19:22;20.42;;;14.40;;
53903;SDS011;39812;52.430;16.936;2022-09-09T04:21:47;22.23;;;14.57;;
53903;SDS011;39812;52.430;16.936;2022-09-09T04:24:15;19.73;;;13.85;;
53903;SDS011;39812;52.430;16.936;2022-09-09T04:26:41;22.75;;;15.32;;
53903;SDS011;39812;52.430;16.936;2022-09-09T04:29:06;26.05;;;15.85;;
53903;SDS011;39812;52.430;16.936;2022-09-09T04:31:32;24.30;;;14.82;;
53903;SDS011;39812;52.430;16.936;2022-09-09T04:33:58;21.42;;;14.35;;
53903;SDS011;39812;52.430;16.936;2022-09-09T04:36:27;27.58;;;15.73;;
53903;SDS011;39812;52.430;16.936;2022-09-09T04:38:52;29.23;;;16.33;;
53903;SDS011;39812;52.430;16.936;2022-09-09T04:41:18;31.35;;;17.60;;
53903;SDS011;39812;52.430;16.936;2022-09-09T04:43:44;37.65;;;17.88;;
53903;SDS011;39812;52.430;16.936;2022-09-09T04:46:09;34.90;;;16.58;;
53903;SDS011;39812;52.430;16.936;2022-09-09T04:48:35;32.83;;;17.23;;
53903;SDS011;39812;52.430;16.936;2022-09-09T04:51:01;39.30;;;17.65;;
53903;SDS011;39812;52.430;16.936;2022-09-09T04:53:29;35.80;;;17.85;;
53903;SDS011;39812;52.430;16.936;2022-09-09T04:56:27;36.72;;;18.08;;
53903;SDS011;39812;52.430;16.936;2022-09-09T04:58:46;37.53;;;16.98;;
53903;SDS011;39812;52.430;16.936;2022-09-09T05:01:13;35.92;;;18.60;;
53903;SDS011;39812;52.430;16.936;2022-09-09T05:03:39;42.53;;;20.88;;
53903;SDS011;39812;52.430;16.936;2022-09-09T05:06:09;37.95;;;19.92;;
53903;SDS011;39812;52.430;16.936;2022-09-09T05:08:36;39.13;;;19.30;;
53903;SDS011;39812;52.430;16.936;2022-09-09T05:11:03;41.45;;;20.70;;
53903;SDS011;39812;52.430;16.936;2022-09-09T05:13:29;39.13;;;19.67;;
53903;SDS011;39812;52.430;16.936;2022-09-09T05:15:56;40.22;;;19.52;;
53903;SDS011;39812;52.430;16.936;2022-09-09T05:18:22;39.10;;;20.05;;
53903;SDS011;39812;52.430;16.936;2022-09-09T05:20:48;42.58;;;20.08;;
53903;SDS011;39812;52.430;16.936;2022-09-09T05:23:15;46.80;;;20.58;;
53903;SDS011;39812;52.430;16.936;2022-09-09T05:25:41;40.90;;;21.90;;
53903;SDS011;39812;52.430;16.936;2022-09-09T05:28:07;38.65;;;19.60;;
53903;SDS011;39812;52.430;16.936;2022-09-09T05:30:32;39.97;;;19.73;;
53903;SDS011;39812;52.430;16.936;2022-09-09T05:32:58;37.42;;;19.58;;
53903;SDS011;39812;52.430;16.936;2022-09-09T05:35:24;38.55;;;19.95;;
53903;SDS011;39812;52.430;16.936;2022-09-09T05:37:50;39.88;;;20.45;;
53903;SDS011;39812;52.430;16.936;2022-09-09T05:40:15;37.97;;;20.13;;
53903;SDS011;39812;52.430;16.936;2022-09-09T05:42:41;36.03;;;19.40;;
53903;SDS011;39812;52.430;16.936;2022-09-09T05:45:07;36.85;;;19.10;;
53903;SDS011;39812;52.430;16.936;2022-09-09T05:47:33;37.78;;;20.65;;
53903;SDS011;39812;52.430;16.936;2022-09-09T05:50:00;39.63;;;20.25;;
53903;SDS011;39812;52.430;16.936;2022-09-09T05:52:25;35.10;;;19.08;;
53903;SDS011;39812;52.430;16.936;2022-09-09T05:54:52;30.25;;;17.38;;
53903;SDS011;39812;52.430;16.936;2022-09-09T05:57:19;28.42;;;16.42;;
53903;SDS011;39812;52.430;16.936;2022-09-09T05:59:45;28.85;;;15.88;;
53903;SDS011;39812;52.430;16.936;2022-09-09T06:02:10;29.00;;;16.95;;
53903;SDS011;39812;52.430;16.936;2022-09-09T06:04:37;25.20;;;15.27;;
53903;SDS011;39812;52.430;16.936;2022-09-09T06:07:02;25.08;;;15.02;;
53903;SDS011;39812;52.430;16.936;2022-09-09T06:09:29;24.80;;;15.27;;
53903;SDS011;39812;52.430;16.936;2022-09-09T06:11:55;28.05;;;15.02;;
53903;SDS011;39812;52.430;16.936;2022-09-09T06:14:22;27.50;;;15.55;;
53903;SDS011;39812;52.430;16.936;2022-09-09T06:16:48;24.17;;;14.65;;
53903;SDS011;39812;52.430;16.936;2022-09-09T06:19:13;21.05;;;13.10;;
53903;SDS011;39812;52.430;16.936;2022-09-09T06:21:39;23.17;;;15.27;;
53903;SDS011;39812;52.430;16.936;2022-09-09T06:24:05;23.45;;;15.13;;
53903;SDS011;39812;52.430;16.936;2022-09-09T06:26:36;22.80;;;14.60;;
53903;SDS011;39812;52.430;16.936;2022-09-09T06:29:05;24.30;;;13.95;;
53903;SDS011;39812;52.430;16.936;2022-09-09T06:31:32;25.25;;;14.57;;
53903;SDS011;39812;52.430;16.936;2022-09-09T06:33:59;19.05;;;13.70;;
53903;SDS011;39812;52.430;16.936;2022-09-09T06:36:29;20.30;;;13.93;;
53903;SDS011;39812;52.430;16.936;2022-09-09T06:38:56;18.85;;;13.38;;
53903;SDS011;39812;52.430;16.936;2022-09-09T06:41:22;17.92;;;13.40;;
53903;SDS011;39812;52.430;16.936;2022-09-09T06:43:51;19.83;;;13.20;;
53903;SDS011;39812;52.430;16.936;2022-09-09T06:46:21;18.30;;;13.32;;
53903;SDS011;39812;52.430;16.936;2022-09-09T06:48:52;17.38;;;13.05;;
53903;SDS011;39812;52.430;16.936;2022-09-09T06:51:20;17.52;;;12.65;;
53903;SDS011;39812;52.430;16.936;2022-09-09T06:53:50;18.45;;;12.43;;
53903;SDS011;39812;52.430;16.936;2022-09-09T06:58:46;18.63;;;14.02;;
53903;SDS011;39812;52.430;16.936;2022-09-09T07:01:14;20.13;;;13.32;;
53903;SDS011;39812;52.430;16.936;2022-09-09T07:03:44;18.20;;;13.13;;
53903;SDS011;39812;52.430;16.936;2022-09-09T07:06:18;18.27;;;14.13;;
53903;SDS011;39812;52.430;16.936;2022-09-09T07:08:59;18.07;;;14.13;;
53903;SDS011;39812;52.430;16.936;2022-09-09T07:11:42;19.88;;;14.20;;
53903;SDS011;39812;52.430;16.936;2022-09-09T07:14:09;20.55;;;14.27;;
53903;SDS011;39812;52.430;16.936;2022-09-09T07:16:38;16.60;;;11.10;;
53903;SDS011;39812;52.430;16.936;2022-09-09T07:19:05;16.65;;;12.57;;
53903;SDS011;39812;52.430;16.936;2022-09-09T07:21:30;17.50;;;12.65;;
53903;SDS011;39812;52.430;16.936;2022-09-09T07:23:58;16.90;;;12.32;;
53903;SDS011;39812;52.430;16.936;2022-09-09T07:26:25;16.25;;;11.70;;
53903;SDS011;39812;52.430;16.936;2022-09-09T07:28:53;19.60;;;14.50;;
53903;SDS011;39812;52.430;16.936;2022-09-09T07:31:21;20.33;;;12.48;;
53903;SDS011;39812;52.430;16.936;2022-09-09T07:34:01;20.17;;;12.82;;
53903;SDS011;39812;52.430;16.936;2022-09-09T07:36:31;17.45;;;12.65;;
53903;SDS011;39812;52.430;16.936;2022-09-09T07:39:06;17.63;;;11.65;;
53903;SDS011;39812;52.430;16.936;2022-09-09T07:41:34;20.30;;;11.43;;
53903;SDS011;39812;52.430;16.936;2022-09-09T07:44:05;18.35;;;11.50;;
53903;SDS011;39812;52.430;16.936;2022-09-09T07:46:33;19.58;;;12.00;;
53903;SDS011;39812;52.430;16.936;2022-09-09T07:48:59;17.02;;;11.77;;
53903;SDS011;39812;52.430;16.936;2022-09-09T07:51:27;16.90;;;11.60;;
53903;SDS011;39812;52.430;16.936;2022-09-09T07:53:55;17.08;;;11.38;;
53903;SDS011;39812;52.430;16.936;2022-09-09T07:56:23;16.38;;;10.07;;
53903;SDS011;39812;52.430;16.936;2022-09-09T07:58:49;15.82;;;10.13;;
53903;SDS011;39812;52.430;16.936;2022-09-09T08:01:18;16.50;;;10.23;;
53903;SDS011;39812;52.430;16.936;2022-09-09T08:03:54;15.27;;;9.32;;
53903;SDS011;39812;52.430;16.936;2022-09-09T08:06:29;15.00;;;9.35;;
53903;SDS011;39812;52.430;16.936;2022-09-09T08:09:01;16.02;;;9.23;;
53903;SDS011;39812;52.430;16.936;2022-09-09T08:11:27;16.15;;;9.60;;
53903;SDS011;39812;52.430;16.936;2022-09-09T08:13:54;17.92;;;9.73;;
53903;SDS011;39812;52.430;16.936;2022-09-09T08:16:21;16.65;;;10.02;;
53903;SDS011;39812;52.430;16.936;2022-09-09T08:18:49;14.40;;;8.85;;
53903;SDS011;39812;52.430;16.936;2022-09-09T08:21:17;12.15;;;8.20;;
53903;SDS011;39812;52.430;16.936;2022-09-09T08:23:45;14.15;;;9.10;;
53903;SDS011;39812;52.430;16.936;2022-09-09T08:26:13;14.38;;;8.77;;
53903;SDS011;39812;52.430;16.936;2022-09-09T08:28:40;14.23;;;8.50;;
53903;SDS011;39812;52.430;16.936;2022-09-09T08:33:37;16.33;;;7.82;;
53903;SDS011;39812;52.430;16.936;2022-09-09T08:36:04;10.50;;;7.45;;
53903;SDS011;39812;52.430;16.936;2022-09-09T08:38:30;14.20;;;8.02;;
53903;SDS011;39812;52.430;16.936;2022-09-09T08:40:58;12.70;;;7.60;;
53903;SDS011;39812;52.430;16.936;2022-09-09T08:43:35;8.65;;;6.03;;
53903;SDS011;39812;52.430;16.936;2022-09-09T08:49:23;10.70;;;7.53;;
53903;SDS011;39812;52.430;16.936;2022-09-09T08:52:16;9.95;;;6.25;;
53903;SDS011;39812;52.430;16.936;2022-09-09T08:55:05;9.77;;;5.60;;
53903;SDS011;39812;52.430;16.936;2022-09-09T08:57:52;7.97;;;5.50;;
53903;SDS011;39812;52.430;16.936;2022-09-09T09:00:19;9.40;;;5.88;;
53903;SDS011;39812;52.430;16.936;2022-09-09T09:03:05;8.38;;;6.10;;
53903;SDS011;39812;52.430;16.936;2022-09-09T09:05:44;5.88;;;4.82;;
53903;SDS011;39812;52.430;16.936;2022-09-09T09:08:52;6.88;;;4.57;;
53903;SDS011;39812;52.430;16.936;2022-09-09T09:11:38;8.65;;;4.72;;
53903;SDS011;39812;52.430;16.936;2022-09-09T09:14:16;10.40;;;4.72;;
53903;SDS011;39812;52.430;16.936;2022-09-09T09:19:14;9.88;;;5.45;;
53903;SDS011;39812;52.430;16.936;2022-09-09T09:21:42;5.97;;;4.88;;
53903;SDS011;39812;52.430;16.936;2022-09-09T09:24:13;5.20;;;3.90;;
53903;SDS011;39812;52.430;16.936;2022-09-09T09:29:12;4.85;;;4.20;;
53903;SDS011;39812;52.430;16.936;2022-09-09T09:31:41;5.82;;;4.40;;
53903;SDS011;39812;52.430;16.936;2022-09-09T09:34:17;8.18;;;4.68;;
53903;SDS011;39812;52.430;16.936;2022-09-09T09:36:53;6.15;;;4.75;;
53903;SDS011;39812;52.430;16.936;2022-09-09T09:39:27;6.75;;;4.43;;
53903;SDS011;39812;52.430;16.936;2022-09-09T09:42:10;6.00;;;4.40;;
53903;SDS011;39812;52.430;16.936;2022-09-09T09:44:39;5.60;;;3.60;;
53903;SDS011;39812;52.430;16.936;2022-09-09T09:47:06;4.80;;;3.60;;
53903;SDS011;39812;52.430;16.936;2022-09-09T09:49:39;5.72;;;2.90;;
53903;SDS011;39812;52.430;16.936;2022-09-09T09:52:16;5.07;;;3.42;;
53903;SDS011;39812;52.430;16.936;2022-09-09T09:54:46;4.95;;;3.08;;
53903;SDS011;39812;52.430;16.936;2022-09-09T09:57:13;5.80;;;3.80;;
53903;SDS011;39812;52.430;16.936;2022-09-09T09:59:40;4.95;;;3.33;;
53903;SDS011;39812;52.430;16.936;2022-09-09T10:02:13;5.30;;;3.70;;
53903;SDS011;39812;52.430;16.936;2022-09-09T10:04:41;3.58;;;2.78;;
53903;SDS011;39812;52.430;16.936;2022-09-09T10:07:10;4.05;;;3.10;;
53903;SDS011;39812;52.430;16.936;2022-09-09T10:09:47;4.13;;;3.28;;
53903;SDS011;39812;52.430;16.936;2022-09-09T10:12:22;4.05;;;2.85;;
53903;SDS011;39812;52.430;16.936;2022-09-09T10:15:05;4.13;;;2.63;;
53903;SDS011;39812;52.430;16.936;2022-09-09T10:17:45;2.92;;;2.20;;
53903;SDS011;39812;52.430;16.936;2022-09-09T10:20:40;3.35;;;2.67;;
53903;SDS011;39812;52.430;16.936;2022-09-09T10:31:24;4.75;;;2.58;;
53903;SDS011;39812;52.430;16.936;2022-09-09T10:37:03;4.22;;;2.08;;
53903;SDS011;39812;52.430;16.936;2022-09-09T10:39:43;3.88;;;2.15;;
53903;SDS011;39812;52.430;16.936;2022-09-09T10:42:09;3.33;;;2.00;;
53903;SDS011;39812;52.430;16.936;2022-09-09T10:47:36;6.43;;;2.30;;
53903;SDS011;39812;52.430;16.936;2022-09-09T10:55:42;4.22;;;2.28;;
53903;SDS011;39812;52.430;16.936;2022-09-09T10:58:10;2.78;;;2.10;;
53903;SDS011;39812;52.430;16.936;2022-09-09T11:00:42;4.50;;;2.80;;
53903;SDS011;39812;52.430;16.936;2022-09-09T11:03:16;4.25;;;2.28;;
53903;SDS011;39812;52.430;16.936;2022-09-09T11:05:55;5.75;;;2.17;;
53903;SDS011;39812;52.430;16.936;2022-09-09T11:08:27;6.63;;;1.83;;
53903;SDS011;39812;52.430;16.936;2022-09-09T11:13:47;2.45;;;1.70;;
53903;SDS011;39812;52.430;16.936;2022-09-09T11:16:21;4.45;;;2.28;;
53903;SDS011;39812;52.430;16.936;2022-09-09T11:21:24;3.35;;;2.13;;
53903;SDS011;39812;52.430;16.936;2022-09-09T11:23:56;3.90;;;2.17;;
53903;SDS011;39812;52.430;16.936;2022-09-09T11:32:33;3.38;;;1.70;;
53903;SDS011;39812;52.430;16.936;2022-09-09T11:40:57;2.90;;;1.85;;
53903;SDS011;39812;52.430;16.936;2022-09-09T11:45:57;2.92;;;1.75;;
53903;SDS011;39812;52.430;16.936;2022-09-09T11:48:29;3.22;;;0.90;;
53903;SDS011;39812;52.430;16.936;2022-09-09T11:51:03;2.38;;;0.70;;
53903;SDS011;39812;52.430;16.936;2022-09-09T11:53:54;5.38;;;1.40;;
53903;SDS011;39812;52.430;16.936;2022-09-09T11:59:03;1.90;;;1.40;;
53903;SDS011;39812;52.430;16.936;2022-09-09T12:04:10;2.90;;;1.13;;
53903;SDS011;39812;52.430;16.936;2022-09-09T12:06:45;2.13;;;1.08;;
53903;SDS011;39812;52.430;16.936;2022-09-09T12:09:18;2.55;;;1.02;;
53903;SDS011;39812;52.430;16.936;2022-09-09T12:12:07;2.10;;;1.02;;
53903;SDS011;39812;52.430;16.936;2022-09-09T12:14:55;3.55;;;1.30;;
53903;SDS011;39812;52.430;16.936;2022-09-09T12:17:23;2.67;;;1.58;;
53903;SDS011;39812;52.430;16.936;2022-09-09T12:20:00;3.15;;;0.70;;
53903;SDS011;39812;52.430;16.936;2022-09-09T12:23:15;2.88;;;1.00;;
53903;SDS011;39812;52.430;16.936;2022-09-09T12:28:17;3.47;;;0.90;;
53903;SDS011;39812;52.430;16.936;2022-09-09T12:33:49;4.43;;;0.93;;
53903;SDS011;39812;52.430;16.936;2022-09-09T12:36:21;4.28;;;1.20;;
53903;SDS011;39812;52.430;16.936;2022-09-09T12:38:52;2.20;;;1.02;;
53903;SDS011;39812;52.430;16.936;2022-09-09T12:41:18;2.67;;;1.30;;
53903;SDS011;39812;52.430;16.936;2022-09-09T12:43:45;2.17;;;0.77;;
53903;SDS011;39812;52.430;16.936;2022-09-09T12:46:16;2.83;;;1.10;;
53903;SDS011;39812;52.430;16.936;2022-09-09T12:48:51;3.13;;;0.90;;
53903;SDS011;39812;52.430;16.936;2022-09-09T12:51:23;2.83;;;1.13;;
53903;SDS011;39812;52.430;16.936;2022-09-09T12:53:52;2.00;;;0.98;;
53903;SDS011;39812;52.430;16.936;2022-09-09T12:56:19;4.00;;;1.02;;
53903;SDS011;39812;52.430;16.936;2022-09-09T12:58:47;3.28;;;0.90;;
53903;SDS011;39812;52.430;16.936;2022-09-09T13:01:23;4.07;;;0.80;;
53903;SDS011;39812;52.430;16.936;2022-09-09T13:03:51;2.42;;;0.70;;
53903;SDS011;39812;52.430;16.936;2022-09-09T13:06:19;1.13;;;0.60;;
53903;SDS011;39812;52.430;16.936;2022-09-09T13:08:47;3.53;;;0.90;;
53903;SDS011;39812;52.430;16.936;2022-09-09T13:11:15;2.17;;;0.90;;
53903;SDS011;39812;52.430;16.936;2022-09-09T13:13:50;2.55;;;0.73;;
53903;SDS011;39812;52.430;16.936;2022-09-09T13:16:27;1.42;;;0.80;;
53903;SDS011;39812;52.430;16.936;2022-09-09T13:18:59;2.47;;;0.80;;
53903;SDS011;39812;52.430;16.936;2022-09-09T13:21:33;2.05;;;0.77;;
53903;SDS011;39812;52.430;16.936;2022-09-09T13:23:59;2.53;;;0.68;;
53903;SDS011;39812;52.430;16.936;2022-09-09T13:26:28;3.05;;;0.90;;
53903;SDS011;39812;52.430;16.936;2022-09-09T13:28:54;2.60;;;0.95;;
53903;SDS011;39812;52.430;16.936;2022-09-09T13:31:32;1.92;;;0.80;;
53903;SDS011;39812;52.430;16.936;2022-09-09T13:34:10;2.63;;;0.85;;
53903;SDS011;39812;52.430;16.936;2022-09-09T13:36:38;3.42;;;0.80;;
53903;SDS011;39812;52.430;16.936;2022-09-09T13:39:04;3.90;;;0.75;;
53903;SDS011;39812;52.430;16.936;2022-09-09T13:41:32;1.92;;;0.60;;
53903;SDS011;39812;52.430;16.936;2022-09-09T13:43:59;2.72;;;0.77;;
53903;SDS011;39812;52.430;16.936;2022-09-09T13:49:16;3.63;;;0.90;;
53903;SDS011;39812;52.430;16.936;2022-09-09T13:51:50;2.28;;;0.65;;
53903;SDS011;39812;52.430;16.936;2022-09-09T13:54:19;1.90;;;0.80;;
53903;SDS011;39812;52.430;16.936;2022-09-09T13:56:45;2.00;;;0.68;;
53903;SDS011;39812;52.430;16.936;2022-09-09T13:59:12;1.60;;;0.80;;
53903;SDS011;39812;52.430;16.936;2022-09-09T14:01:41;2.67;;;0.80;;
53903;SDS011;39812;52.430;16.936;2022-09-09T14:04:07;2.72;;;0.85;;
53903;SDS011;39812;52.430;16.936;2022-09-09T14:06:37;4.80;;;1.05;;
53903;SDS011;39812;52.430;16.936;2022-09-09T14:09:04;1.63;;;0.68;;
53903;SDS011;39812;52.430;16.936;2022-09-09T14:11:31;5.35;;;0.90;;
53903;SDS011;39812;52.430;16.936;2022-09-09T14:13:56;3.95;;;0.73;;
53903;SDS011;39812;52.430;16.936;2022-09-09T14:16:22;5.00;;;0.82;;
53903;SDS011;39812;52.430;16.936;2022-09-09T14:18:47;1.90;;;0.73;;
53903;SDS011;39812;52.430;16.936;2022-09-09T14:21:13;1.88;;;0.70;;
53903;SDS011;39812;52.430;16.936;2022-09-09T14:23:40;2.72;;;0.98;;
53903;SDS011;39812;52.430;16.936;2022-09-09T14:26:06;1.73;;;0.98;;
53903;SDS011;39812;52.430;16.936;2022-09-09T14:28:32;3.97;;;0.80;;
53903;SDS011;39812;52.430;16.936;2022-09-09T14:31:02;2.60;;;0.95;;
53903;SDS011;39812;52.430;16.936;2022-09-09T14:33:28;3.58;;;1.08;;
53903;SDS011;39812;52.430;16.936;2022-09-09T14:35:56;3.58;;;1.00;;
53903;SDS011;39812;52.430;16.936;2022-09-09T14:38:22;2.97;;;1.08;;
53903;SDS011;39812;52.430;16.936;2022-09-09T14:40:47;3.38;;;0.70;;
53903;SDS011;39812;52.430;16.936;2022-09-09T14:43:13;1.85;;;0.70;;
53903;SDS011;39812;52.430;16.936;2022-09-09T14:45:39;2.53;;;1.00;;
53903;SDS011;39812;52.430;16.936;2022-09-09T14:48:04;1.95;;;0.68;;
53903;SDS011;39812;52.430;16.936;2022-09-09T14:50:30;5.18;;;0.93;;
53903;SDS011;39812;52.430;16.936;2022-09-09T14:52:55;2.22;;;0.63;;
53903;SDS011;39812;52.430;16.936;2022-09-09T14:55:21;2.28;;;0.80;;
53903;SDS011;39812;52.430;16.936;2022-09-09T14:57:46;1.52;;;0.60;;
53903;SDS011;39812;52.430;16.936;2022-09-09T15:00:12;3.10;;;0.80;;
53903;SDS011;39812;52.430;16.936;2022-09-09T15:02:38;1.85;;;0.50;;
53903;SDS011;39812;52.430;16.936;2022-09-09T15:05:03;2.28;;;0.70;;
53903;SDS011;39812;52.430;16.936;2022-09-09T15:07:29;2.88;;;0.70;;
53903;SDS011;39812;52.430;16.936;2022-09-09T15:09:56;2.13;;;0.77;;
53903;SDS011;39812;52.430;16.936;2022-09-09T15:12:22;2.42;;;0.77;;
53903;SDS011;39812;52.430;16.936;2022-09-09T15:14:49;2.83;;;0.60;;
53903;SDS011;39812;52.430;16.936;2022-09-09T15:17:15;2.60;;;0.70;;
53903;SDS011;39812;52.430;16.936;2022-09-09T15:19:41;4.07;;;0.90;;
53903;SDS011;39812;52.430;16.936;2022-09-09T15:22:07;2.80;;;0.70;;
53903;SDS011;39812;52.430;16.936;2022-09-09T15:24:33;2.13;;;0.70;;
53903;SDS011;39812;52.430;16.936;2022-09-09T15:26:59;2.03;;;0.73;;
53903;SDS011;39812;52.430;16.936;2022-09-09T15:29:25;3.03;;;0.98;;
53903;SDS011;39812;52.430;16.936;2022-09-09T15:31:51;2.60;;;0.70;;
53903;SDS011;39812;52.430;16.936;2022-09-09T15:34:19;2.00;;;0.70;;
53903;SDS011;39812;52.430;16.936;2022-09-09T15:36:44;2.15;;;0.80;;
53903;SDS011;39812;52.430;16.936;2022-09-09T15:39:13;2.45;;;0.70;;
53903;SDS011;39812;52.430;16.936;2022-09-09T15:41:41;2.25;;;0.80;;
53903;SDS011;39812;52.430;16.936;2022-09-09T15:44:08;2.15;;;0.80;;
53903;SDS011;39812;52.430;16.936;2022-09-09T15:46:39;2.20;;;0.82;;
53903;SDS011;39812;52.430;16.936;2022-09-09T15:51:38;3.50;;;0.98;;
53903;SDS011;39812;52.430;16.936;2022-09-09T15:54:09;4.10;;;1.23;;
53903;SDS011;39812;52.430;16.936;2022-09-09T15:56:36;1.35;;;0.90;;
53903;SDS011;39812;52.430;16.936;2022-09-09T15:59:02;3.40;;;1.20;;
53903;SDS011;39812;52.430;16.936;2022-09-09T16:01:28;1.95;;;1.02;;
53903;SDS011;39812;52.430;16.936;2022-09-09T16:03:56;2.70;;;1.20;;
53903;SDS011;39812;52.430;16.936;2022-09-09T16:06:23;4.07;;;1.23;;
53903;SDS011;39812;52.430;16.936;2022-09-09T16:08:50;4.28;;;1.17;;